• Join FlightAware (Why Join?)
  • Login
  • US Flag 
10:21AM EST


 

Airport Tracker/Info


-or-


 

Live Flight TrackerFlight Track Log ✈ N68JV ✈ 22-Jul-2013 ✈ KDTS - KASL

Flight Track Log - Related Links

Times and Time Zones

All times are in EDT time to prevent confusion due to time zone crossing. See the N68JV flight status page for this flight to view local times or setup timezone preferences in your user account.

Time Position Orientation Groundspeed Altitude Reporting Facility
EDT Latitude Longitude Course Direction KTS MPH feet Rate Location/Type
06:30PM 30.4214 -86.3011 39° Northeast 272 313 8,600  Level Jacksonville Center
06:31PM 30.4989 -86.2942 North 258 297 10,900 2,160 Climbing Jacksonville Center
06:32PM 30.5781 -86.2922 North 269 310 13,000 2,100 Climbing Jacksonville Center
06:33PM 30.6661 -86.2856 North 295 339 15,200 2,220 Climbing Jacksonville Center
06:34PM 30.8084 -86.9167 265° West  Level FlightAware Approximate
06:34PM 30.7425 -86.3103 344° North 300 345 17,500  Level Jacksonville Center
06:35PM 30.7906 -86.3844 307° West 271 312 19,600 2,220 Climbing Jacksonville Center
06:36PM 30.8261 -86.4656 297° West 271 312 22,000 2,220 Climbing Jacksonville Center
06:37PM 30.8656 -86.5419 301° West 271 312 24,100 1,680 Climbing Jacksonville Center
06:38PM 30.9006 -86.6281 295° West 285 328 25,400 1,500 Climbing Jacksonville Center
06:39PM 30.9500 -86.7244 301° West 312 359 27,100 1,500 Climbing Jacksonville Center
06:40PM 30.9972 -86.8208 300° West 324 373 28,500 1,260 Climbing Jacksonville Center
06:42PM 31.0797 -86.9992 298° West 344 396 30,900 1,200 Climbing Houston Center
06:43PM 31.1214 -87.0889 298° West 345 397 32,100 1,140 Climbing Houston Center
06:44PM 31.1458 -87.1981 285° West 350 403 33,300 900 Climbing Houston Center
06:45PM 31.1758 -87.3292 285° West 353 406 34,000 300 Climbing Houston Center
06:46PM 31.2028 -87.4497 285° West 382 440 34,000  Level Houston Center
06:47PM 31.2319 -87.5767 285° West 405 466 34,000  Level Houston Center
06:48PM 31.2611 -87.7078 285° West 418 481 34,000  Level Houston Center
06:49PM 31.2914 -87.8411 285° West 425 489 34,000  Level Houston Center
06:50PM 31.3206 -87.9772 284° West 435 501 34,000  Level Houston Center
06:51PM 31.3561 -88.1408 284° West 438 504 34,000  Level Houston Center
06:52PM 31.3842 -88.2786 283° West 441 507 34,000  Level Houston Center
06:53PM 31.4139 -88.4147 284° West 438 504 34,000  Level Houston Center
06:54PM 31.4408 -88.5503 283° West 430 495 34,000  Level Houston Center
06:55PM 31.4700 -88.6847 284° West 428 493 34,000  Level Houston Center
06:56PM 31.4986 -88.8219 284° West 434 499 34,000  Level Houston Center
06:57PM 31.5339 -88.9858 284° West 435 501 34,000  Level Houston Center
06:58PM 31.5625 -89.1203 284° West 431 496 34,000  Level Houston Center
06:59PM 31.5897 -89.2572 283° West 433 498 34,000  Level Houston Center
07:00PM 31.6169 -89.3947 283° West 435 501 34,000  Level Houston Center
07:01PM 31.6478 -89.5422 284° West 439 505 34,000  Level Houston Center
07:02PM 31.6753 -89.6764 284° West 431 496 34,000  Level Houston Center
07:03PM 31.7028 -89.8100 284° West 426 490 34,000 -60 Level Houston Center
07:04PM 31.7297 -89.9467 283° West 433 498 33,900  Descending Houston Center
07:05PM 31.7558 -90.0769 283° West 418 481 34,000  Climbing Houston Center
07:07PM 31.7911 -90.2622 283° West 417 480 34,000  Level Houston Center
07:08PM 31.8181 -90.3872 284° West 407 468 34,000  Level Houston Center
07:09PM 31.8425 -90.5158 283° West 408 470 34,000  Level Houston Center
07:10PM 31.8683 -90.6486 283° West 417 480 34,000  Level Houston Center
07:11PM 31.8958 -90.7856 283° West 419 482 34,000  Level Houston Center
07:12PM 31.9219 -90.9192 283° West 420 483 34,000  Level Houston Center
07:13PM 31.9475 -91.0514 283° West 418 481 34,000  Level Houston Center
07:14PM 31.9711 -91.1850 282° West 419 482 34,000  Level Houston Center
07:15PM 32.0017 -91.3458 283° West 421 484 34,000  Level Houston Center
07:16PM 32.0269 -91.4800 283° West 421 484 34,000  Level Houston Center
07:17PM 32.0522 -91.6147 283° West 423 487 34,000  Level Houston Center
07:18PM 32.0767 -91.7472 282° West 418 481 34,000  Level Houston Center
07:19PM 32.1011 -91.8797 282° West 415 478 34,000  Level Houston Center
07:20PM 32.1250 -92.0131 282° West 417 480 34,000  Level Houston Center
07:21PM 32.1503 -92.1514 282° West 415 478 34,000 -300 Level Houston Center
07:22PM 32.1744 -92.2858 282° West 418 481 33,500 -1,500 Descending Houston Center
07:23PM 32.2017 -92.4394 282° West 403 464 31,000 -2,400 Descending Houston Center
07:24PM 32.2233 -92.5600 282° West 384 442 28,700 -2,220 Descending Houston Center
07:25PM 32.2442 -92.6756 282° West 382 440 26,500 -2,280 Descending Houston Center
07:26PM 32.2639 -92.7894 282° West 364 419 24,100 -2,640 Descending Houston Center
07:27PM 32.2850 -92.9247 280° West 354 407 21,200 -2,640 Descending Houston Center
07:28PM 32.2864 -93.0525 271° West 386 444 18,700 -2,520 Descending Houston Center
07:29PM 32.2839 -93.1722 269° West 394 453 16,500 -2,580 Descending Fort Worth Center
07:30PM 32.3108 -93.2889 285° West 366 421 14,000 -2,220 Descending Fort Worth Center
07:31PM 32.3331 -93.3961 284° West 345 397 12,100 -1,860 Descending Fort Worth Center
07:32PM 32.3550 -93.4933 285° West 273 314 10,300 -1,680 Descending Fort Worth Center
07:33PM 32.3769 -93.5958 284° West 281 323 8,300 -1,680 Descending Fort Worth Center
07:34PM 32.3872 -93.6642 280° West 268 308 7,000 -1,680 Descending Fort Worth Center
07:35PM 32.4108 -93.7592 286° West 262 302 5,000 -1,020 Descending Fort Worth Center
07:36PM 32.4211 -93.8278 280° West 250 288 5,000 -600 Level Fort Worth Center
07:37PM 32.4403 -93.9106 285° West 259 298 4,000 -1,020 Descending Fort Worth Center
07:38PM 32.4550 -93.9936 282° West 257 296 3,000 -540 Descending Fort Worth Center
07:39PM 32.4722 -94.0842 283° West 265 305 3,000  Level Fort Worth Center
07:40PM 32.4889 -94.1650 284° West 256 295 3,000 -540 Level Fort Worth Center
07:41PM 32.5031 -94.2333 284° West 216 249 2,000 -600 Descending Fort Worth Center
07:42PM 32.5275 -94.2892 297° West 192 221 1,900 -480 Descending Fort Worth Center
07:43PM 32.5572 -94.3153 323° Northwest 139 160 1,000 -600 Descending Fort Worth Center
07:44PM 32.5303 -94.3161 181° South 107 123 800 -300 Descending Fort Worth Center